Time,TemperatureF,DewpointF,PressureIn,WindDirection,WindDirectionDegrees,WindSpeedMPH,WindSpeedGustMPH,Humidity,HourlyPrecipIn,Conditions,Clouds,dailyrainin,SoftwareType,DateUTC
2013-12-25 00:12:00,27.7,20.0,30.29,WNW,293,4.0,7.0,73,0.00,,,0.00,weatherlink.com 1.10,2013-12-25 07:12:00,
2013-12-25 00:27:00,28.0,20.0,30.29,WNW,300,4.0,6.0,72,0.00,,,0.00,weatherlink.com 1.10,2013-12-25 07:27:00,
2013-12-25 00:42:00,27.4,19.0,30.29,WNW,290,3.0,5.0,72,0.00,,,0.00,weatherlink.com 1.10,2013-12-25 07:42:00,
2013-12-25 00:57:00,27.8,20.0,30.29,NW,307,3.0,7.0,72,0.00,,,0.00,weatherlink.com 1.10,2013-12-25 07:57:00,
2013-12-25 01:12:00,29.7,21.0,30.29,WNW,303,5.0,8.0,70,0.00,,,0.00,weatherlink.com 1.10,2013-12-25 08:12:00,
2013-12-25 01:27:00,29.8,21.0,30.29,WNW,302,7.0,9.0,70,0.00,,,0.00,weatherlink.com 1.10,2013-12-25 08:27:00,
2013-12-25 01:42:00,31.3,22.0,30.30,NW,317,10.0,13.0,69,0.00,,,0.00,weatherlink.com 1.10,2013-12-25 08:42:00,
2013-12-25 01:58:00,32.5,23.0,30.30,WNW,300,15.0,16.0,67,0.00,,,0.00,weatherlink.com 1.10,2013-12-25 08:58:00,
2013-12-25 02:13:00,32.8,23.0,30.30,WNW,298,10.0,19.0,66,0.00,,,0.00,weatherlink.com 1.10,2013-12-25 09:13:00,
2013-12-25 02:28:00,33.1,23.0,30.31,WNW,303,15.0,18.0,66,0.00,,,0.00,weatherlink.com 1.10,2013-12-25 09:28:00,
2013-12-25 02:43:00,32.8,23.0,30.31,NW,307,12.0,17.0,67,0.00,,,0.00,weatherlink.com 1.10,2013-12-25 09:43:00,
2013-12-25 02:58:00,32.3,22.0,30.32,NW,309,13.0,17.0,67,0.00,,,0.00,weatherlink.com 1.10,2013-12-25 09:58:00,
2013-12-25 03:13:00,32.3,22.0,30.32,WNW,295,13.0,17.0,67,0.00,,,0.00,weatherlink.com 1.10,2013-12-25 10:13:00,
2013-12-25 03:28:00,32.3,23.0,30.32,NW,304,15.0,18.0,68,0.00,,,0.00,weatherlink.com 1.10,2013-12-25 10:28:00,
2013-12-25 03:43:00,31.6,22.0,30.32,WNW,292,9.0,17.0,69,0.00,,,0.00,weatherlink.com 1.10,2013-12-25 10:43:00,
2013-12-25 03:58:00,30.7,22.0,30.32,WNW,291,7.0,15.0,71,0.00,,,0.00,weatherlink.com 1.10,2013-12-25 10:58:00,
2013-12-25 04:13:00,30.3,22.0,30.33,NW,316,6.0,11.0,71,0.00,,,0.00,weatherlink.com 1.10,2013-12-25 11:13:00,
2013-12-25 04:28:00,29.3,22.0,30.33,WNW,292,6.0,11.0,73,0.00,,,0.00,weatherlink.com 1.10,2013-12-25 11:28:00,
2013-12-25 04:43:00,28.9,21.0,30.34,NW,313,5.0,8.0,73,0.00,,,0.00,weatherlink.com 1.10,2013-12-25 11:43:00,
2013-12-25 04:58:00,29.0,21.0,30.34,NW,312,2.0,7.0,73,0.00,,,0.00,weatherlink.com 1.10,2013-12-25 11:58:00,
2013-12-25 05:13:00,28.9,21.0,30.35,WNW,303,0.0,4.0,72,0.00,,,0.00,weatherlink.com 1.10,2013-12-25 12:13:00,
2013-12-25 05:28:00,26.8,20.0,30.35,SW,232,1.0,2.0,76,0.00,,,0.00,weatherlink.com 1.10,2013-12-25 12:28:00,
2013-12-25 05:43:00,26.2,20.0,30.35,SSW,196,1.0,1.0,76,0.00,,,0.00,weatherlink.com 1.10,2013-12-25 12:43:00,
2013-12-25 05:58:00,25.4,19.0,30.36,SW,218,0.0,3.0,76,0.00,,,0.00,weatherlink.com 1.10,2013-12-25 12:58:00,
2013-12-25 06:13:00,24.4,19.0,30.36,NNW,342,0.0,0.0,80,0.00,,,0.00,weatherlink.com 1.10,2013-12-25 13:13:00,
2013-12-25 06:28:00,24.4,18.0,30.37,SE,128,1.0,2.0,78,0.00,,,0.00,weatherlink.com 1.10,2013-12-25 13:28:00,
2013-12-25 06:43:00,24.6,19.0,30.37,SSW,207,2.0,3.0,79,0.00,,,0.00,weatherlink.com 1.10,2013-12-25 13:43:00,
2013-12-25 06:58:00,25.4,19.0,30.37,WSW,249,2.0,2.0,78,0.00,,,0.00,weatherlink.com 1.10,2013-12-25 13:58:00,
2013-12-25 07:13:00,24.8,19.0,30.38,WSW,250,0.0,3.0,77,0.00,,,0.00,weatherlink.com 1.10,2013-12-25 14:13:00,
2013-12-25 07:28:00,24.7,19.0,30.38,West,278,2.0,4.0,79,0.00,,,0.00,weatherlink.com 1.10,2013-12-25 14:28:00,
2013-12-25 07:43:00,24.6,18.0,30.38,NW,307,0.0,4.0,77,0.00,,,0.00,weatherlink.com 1.10,2013-12-25 14:43:00,
2013-12-25 07:58:00,24.4,19.0,30.39,WNW,290,0.0,0.0,80,0.00,,,0.00,weatherlink.com 1.10,2013-12-25 14:58:00,
2013-12-25 08:13:00,24.6,19.0,30.40,WSW,246,0.0,1.0,79,0.00,,,0.00,weatherlink.com 1.10,2013-12-25 15:13:00,
2013-12-25 08:28:00,24.8,19.0,30.41,SSW,208,0.0,3.0,80,0.00,,,0.00,weatherlink.com 1.10,2013-12-25 15:28:00,
2013-12-25 08:43:00,27.3,21.0,30.41,West,271,0.0,1.0,76,0.00,,,0.00,weatherlink.com 1.10,2013-12-25 15:43:00,
2013-12-25 08:58:00,28.6,21.0,30.42,NNE,16,0.0,0.0,73,0.00,,,0.00,weatherlink.com 1.10,2013-12-25 15:58:00,
2013-12-25 09:14:00,29.0,21.0,30.42,NNE,16,0.0,0.0,72,0.00,,,0.00,weatherlink.com 1.10,2013-12-25 16:14:00,
2013-12-25 09:29:00,29.0,21.0,30.42,NW,304,0.0,4.0,73,0.00,,,0.00,weatherlink.com 1.10,2013-12-25 16:29:00,
2013-12-25 09:44:00,29.1,21.0,30.42,West,260,0.0,0.0,73,0.00,,,0.00,weatherlink.com 1.10,2013-12-25 16:44:00,
2013-12-25 09:59:00,29.7,22.0,30.43,West,263,0.0,1.0,73,0.00,,,0.00,weatherlink.com 1.10,2013-12-25 16:59:00,
2013-12-25 10:14:00,32.7,24.0,30.43,SW,216,0.0,0.0,70,0.00,,,0.00,weatherlink.com 1.10,2013-12-25 17:14:00,
2013-12-25 10:29:00,34.2,23.0,30.43,SW,235,0.0,0.0,65,0.00,,,0.00,weatherlink.com 1.10,2013-12-25 17:29:00,
2013-12-25 10:44:00,33.9,24.0,30.42,NNW,335,0.0,4.0,66,0.00,,,0.00,weatherlink.com 1.10,2013-12-25 17:44:00,
2013-12-25 10:59:00,33.9,24.0,30.41,NNW,347,2.0,7.0,67,0.00,,,0.00,weatherlink.com 1.10,2013-12-25 17:59:00,
2013-12-25 11:14:00,33.8,24.0,30.40,WNW,301,3.0,6.0,67,0.00,,,0.00,weatherlink.com 1.10,2013-12-25 18:14:00,
2013-12-25 11:29:00,34.7,24.0,30.40,WNW,300,2.0,5.0,65,0.00,,,0.00,weatherlink.com 1.10,2013-12-25 18:29:00,
2013-12-25 11:44:00,35.2,23.0,30.39,NW,316,1.0,5.0,62,0.00,,,0.00,weatherlink.com 1.10,2013-12-25 18:44:00,
2013-12-25 11:59:00,35.5,24.0,30.38,NW,324,1.0,5.0,62,0.00,,,0.00,weatherlink.com 1.10,2013-12-25 18:59:00,
2013-12-25 12:14:00,35.1,23.0,30.37,WNW,301,3.0,5.0,62,0.00,,,0.00,weatherlink.com 1.10,2013-12-25 19:14:00,
2013-12-25 12:29:00,35.4,24.0,30.36,WNW,302,1.0,3.0,64,0.00,,,0.00,weatherlink.com 1.10,2013-12-25 19:29:00,
2013-12-25 12:44:00,36.8,24.0,30.36,SW,227,1.0,2.0,61,0.00,,,0.00,weatherlink.com 1.10,2013-12-25 19:44:00,
2013-12-25 12:59:00,38.5,24.0,30.35,SSW,212,0.0,1.0,57,0.00,,,0.00,weatherlink.com 1.10,2013-12-25 19:59:00,
2013-12-25 13:14:00,38.9,24.0,30.34,South,174,3.0,4.0,55,0.00,,,0.00,weatherlink.com 1.10,2013-12-25 20:14:00,
2013-12-25 13:29:00,37.6,24.0,30.33,SE,124,0.0,5.0,59,0.00,,,0.00,weatherlink.com 1.10,2013-12-25 20:29:00,
2013-12-25 13:44:00,37.4,24.0,30.32,SSW,197,2.0,5.0,60,0.00,,,0.00,weatherlink.com 1.10,2013-12-25 20:44:00,
2013-12-25 13:59:00,37.0,24.0,30.32,SE,136,3.0,6.0,60,0.00,,,0.00,weatherlink.com 1.10,2013-12-25 20:59:00,
2013-12-25 14:14:00,36.8,24.0,30.30,SE,141,4.0,6.0,61,0.00,,,0.00,weatherlink.com 1.10,2013-12-25 21:14:00,
2013-12-25 14:29:00,36.2,25.0,30.30,East,101,2.0,8.0,64,0.00,,,0.00,weatherlink.com 1.10,2013-12-25 21:29:00,
2013-12-25 14:44:00,36.3,25.0,30.30,ESE,106,2.0,4.0,64,0.00,,,0.00,weatherlink.com 1.10,2013-12-25 21:44:00,
2013-12-25 14:59:00,36.1,24.0,30.29,SSW,196,3.0,7.0,61,0.00,,,0.00,weatherlink.com 1.10,2013-12-25 21:59:00,
2013-12-25 15:14:00,35.5,24.0,30.28,South,171,5.0,13.0,62,0.00,,,0.00,weatherlink.com 1.10,2013-12-25 22:14:00,
2013-12-25 15:29:00,35.5,24.0,30.28,East,89,0.0,5.0,63,0.00,,,0.00,weatherlink.com 1.10,2013-12-25 22:29:00,
2013-12-25 15:44:00,35.9,25.0,30.27,SSW,210,0.0,3.0,64,0.00,,,0.00,weatherlink.com 1.10,2013-12-25 22:44:00,
2013-12-25 15:59:00,34.4,24.0,30.26,SSW,199,1.0,4.0,66,0.00,,,0.00,weatherlink.com 1.10,2013-12-25 22:59:00,
2013-12-25 16:14:00,32.1,23.0,30.25,ENE,77,1.0,3.0,69,0.00,,,0.00,weatherlink.com 1.10,2013-12-25 23:14:00,
2013-12-25 16:29:00,30.7,23.0,30.25,East,88,0.0,3.0,72,0.00,,,0.00,weatherlink.com 1.10,2013-12-25 23:29:00,
2013-12-25 16:44:00,29.5,22.0,30.25,North,5,0.0,2.0,74,0.00,,,0.00,weatherlink.com 1.10,2013-12-25 23:44:00,
2013-12-25 16:59:00,30.1,22.0,30.24,East,89,0.0,0.0,73,0.00,,,0.00,weatherlink.com 1.10,2013-12-25 23:59:00,
2013-12-25 17:14:00,28.7,22.0,30.24,North,8,0.0,0.0,75,0.00,,,0.00,weatherlink.com 1.10,2013-12-26 00:14:00,
2013-12-25 17:29:00,28.2,22.0,30.24,WNW,301,0.0,0.0,77,0.00,,,0.00,weatherlink.com 1.10,2013-12-26 00:29:00,
2013-12-25 17:44:00,26.3,20.0,30.24,NW,324,0.0,0.0,78,0.00,,,0.00,weatherlink.com 1.10,2013-12-26 00:44:00,
2013-12-25 17:59:00,26.6,21.0,30.23,SW,228,0.0,0.0,79,0.00,,,0.00,weatherlink.com 1.10,2013-12-26 00:59:00,
2013-12-25 18:14:00,26.1,21.0,30.23,WSW,247,2.0,3.0,82,0.00,,,0.00,weatherlink.com 1.10,2013-12-26 01:14:00,
2013-12-25 18:29:00,25.5,19.0,30.22,NW,321,0.0,0.0,75,0.00,,,0.00,weatherlink.com 1.10,2013-12-26 01:29:00,
2013-12-25 18:44:00,23.4,18.0,30.22,NW,308,1.0,2.0,80,0.00,,,0.00,weatherlink.com 1.10,2013-12-26 01:44:00,
2013-12-25 19:00:00,22.9,18.0,30.21,NW,304,0.0,2.0,80,0.00,,,0.00,weatherlink.com 1.10,2013-12-26 02:00:00,
2013-12-25 19:15:00,24.0,20.0,30.21,WNW,283,0.0,1.0,83,0.00,,,0.00,weatherlink.com 1.10,2013-12-26 02:15:00,
2013-12-25 19:30:00,24.2,19.0,30.21,WNW,300,1.0,2.0,80,0.00,,,0.00,weatherlink.com 1.10,2013-12-26 02:30:00,
2013-12-25 19:45:00,25.4,20.0,30.20,WNW,298,2.0,2.0,79,0.00,,,0.00,weatherlink.com 1.10,2013-12-26 02:45:00,
2013-12-25 20:00:00,24.3,17.0,30.19,NW,324,1.0,2.0,74,0.00,,,0.00,weatherlink.com 1.10,2013-12-26 03:00:00,
2013-12-25 20:15:00,24.5,17.0,30.19,NW,314,1.0,2.0,73,0.00,,,0.00,weatherlink.com 1.10,2013-12-26 03:15:00,
2013-12-25 20:30:00,25.1,18.0,30.18,NW,306,2.0,3.0,73,0.00,,,0.00,weatherlink.com 1.10,2013-12-26 03:30:00,
2013-12-25 20:45:00,26.1,18.0,30.18,WNW,303,2.0,3.0,70,0.00,,,0.00,weatherlink.com 1.10,2013-12-26 03:45:00,
2013-12-25 21:00:00,26.3,17.0,30.17,NW,307,3.0,4.0,69,0.00,,,0.00,weatherlink.com 1.10,2013-12-26 04:00:00,
2013-12-25 21:15:00,25.5,17.0,30.16,WNW,298,2.0,4.0,69,0.00,,,0.00,weatherlink.com 1.10,2013-12-26 04:15:00,
2013-12-25 21:30:00,24.6,16.0,30.16,WNW,302,2.0,2.0,70,0.00,,,0.00,weatherlink.com 1.10,2013-12-26 04:30:00,
2013-12-25 21:45:00,24.7,16.0,30.15,NW,312,1.0,3.0,69,0.00,,,0.00,weatherlink.com 1.10,2013-12-26 04:45:00,
2013-12-25 22:00:00,24.7,16.0,30.15,NW,309,0.0,2.0,70,0.00,,,0.00,weatherlink.com 1.10,2013-12-26 05:00:00,
2013-12-25 22:15:00,23.0,15.0,30.15,NW,309,0.0,0.0,72,0.00,,,0.00,weatherlink.com 1.10,2013-12-26 05:15:00,
2013-12-25 22:30:00,21.4,15.0,30.15,NW,309,0.0,0.0,76,0.00,,,0.00,weatherlink.com 1.10,2013-12-26 05:30:00,
2013-12-25 22:45:00,20.9,15.0,30.15,SE,132,0.0,0.0,77,0.00,,,0.00,weatherlink.com 1.10,2013-12-26 05:45:00,
2013-12-25 23:00:00,21.1,15.0,30.14,SSW,193,0.0,0.0,78,0.00,,,0.00,weatherlink.com 1.10,2013-12-26 06:00:00,
2013-12-25 23:15:00,20.0,15.0,30.13,NNW,330,0.0,2.0,79,0.00,,,0.00,weatherlink.com 1.10,2013-12-26 06:15:00,
2013-12-25 23:30:00,22.5,15.0,30.12,WSW,249,0.0,3.0,73,0.00,,,0.00,weatherlink.com 1.10,2013-12-26 06:30:00,
2013-12-25 23:45:00,21.7,14.0,30.12,NNW,340,1.0,1.0,73,0.00,,,0.00,weatherlink.com 1.10,2013-12-26 06:45:00,